Time;durP1;ratioP1;P1;durP2;ratioP2;P2;SDS_P1;SDS_P2;PMS_P1;PMS_P2;Temp;Humidity;BMP_temperature;BMP_pressure;BME280_temperature;BME280_humidity;BME280_pressure;Samples;Min_cycle;Max_cycle;Signal;HPM_P1;HPM_P2
2022/03/11 00:02:26;;;;;;;30.52;10.25;;;;;;;0.45;49.27;94056.38;5050251;28;20521;-47
2022/03/11 00:04:53;;;;;;;39.95;11.18;;;;;;;0.45;49.56;94052.91;5049810;28;20045;-49
2022/03/11 00:07:20;;;;;;;30.73;9.00;;;;;;;0.43;49.07;94055.16;5050200;28;20059;-52
2022/03/11 00:09:46;;;;;;;28.55;8.57;;;;;;;0.41;48.86;94057.41;5049717;28;20043;-51
2022/03/11 00:12:13;;;;;;;28.75;8.38;;;;;;;0.36;49.70;94059.25;5050155;28;20044;-53
2022/03/11 00:14:40;;;;;;;22.38;7.30;;;;;;;0.30;49.86;94057.13;5050817;28;20049;-50
2022/03/11 00:17:07;;;;;;;27.77;8.95;;;;;;;0.10;51.12;94059.72;5050052;28;20401;-48
2022/03/11 00:19:34;;;;;;;25.33;8.43;;;;;;;0.03;50.88;94056.06;5050212;28;20047;-51
2022/03/11 00:22:01;;;;;;;28.38;9.05;;;;;;;0.08;50.66;94053.91;5049860;28;20053;-51
2022/03/11 00:24:28;;;;;;;28.25;8.85;;;;;;;-0.12;51.19;94052.16;5050657;28;20091;-54
2022/03/11 00:26:56;;;;;;;29.08;8.07;;;;;;;0.01;51.37;94050.22;5049431;28;20038;-49
2022/03/11 00:29:22;;;;;;;29.60;8.73;;;;;;;0.05;51.28;94051.09;5045097;28;20051;-51
2022/03/11 00:31:50;;;;;;;30.37;9.43;;;;;;;-0.08;51.77;94051.16;5030718;28;20051;-47
2022/03/11 00:34:17;;;;;;;28.55;8.77;;;;;;;-0.03;51.67;94053.59;5029961;28;20053;-47
2022/03/11 00:36:44;;;;;;;29.10;8.63;;;;;;;-0.08;51.71;94047.66;5030452;28;20112;-49
2022/03/11 00:39:11;;;;;;;33.60;10.15;;;;;;;-0.19;52.33;94044.69;5029974;28;20037;-56
2022/03/11 00:41:38;;;;;;;33.08;9.68;;;;;;;-0.26;52.33;94044.50;5030191;28;20409;-51
2022/03/11 00:44:05;;;;;;;25.63;8.20;;;;;;;-0.38;52.60;94052.63;5029936;28;20041;-50
2022/03/11 00:46:32;;;;;;;24.52;8.00;;;;;;;-0.28;52.41;94044.03;5030179;28;20350;-50
2022/03/11 00:48:59;;;;;;;28.67;8.68;;;;;;;-0.50;53.41;94046.16;5030227;28;20067;-47
2022/03/11 00:51:25;;;;;;;28.77;7.78;;;;;;;-0.41;52.76;94046.78;5029822;28;20046;-48
2022/03/11 00:53:52;;;;;;;26.92;8.05;;;;;;;-0.34;52.56;94048.09;5030244;28;20067;-50
2022/03/11 00:56:19;;;;;;;18.40;7.10;;;;;;;-0.55;53.74;94040.22;5044930;28;20466;-54
2022/03/11 00:58:46;;;;;;;24.88;8.70;;;;;;;-0.49;53.31;94044.22;5029886;28;20053;-53
2022/03/11 01:01:13;;;;;;;24.88;8.02;;;;;;;-0.45;53.21;94035.09;5029418;28;20114;-54
2022/03/11 01:03:40;;;;;;;21.67;7.90;;;;;;;-0.52;53.16;94037.63;5030168;28;20053;-47
2022/03/11 01:06:07;;;;;;;23.83;8.80;;;;;;;-0.51;53.49;94028.41;5028315;28;20065;-47
2022/03/11 01:08:34;;;;;;;24.57;8.93;;;;;;;-0.54;53.64;94036.38;5047203;28;20053;-47
2022/03/11 01:11:00;;;;;;;27.63;11.00;;;;;;;-0.57;53.51;94037.06;5049113;28;20037;-54
2022/03/11 01:13:27;;;;;;;19.35;8.23;;;;;;;-0.51;54.04;94031.09;5049890;28;20501;-50
2022/03/11 01:15:54;;;;;;;21.27;9.88;;;;;;;-0.78;54.58;94023.78;5049813;28;20047;-46
2022/03/11 01:18:21;;;;;;;19.85;7.70;;;;;;;-0.83;54.60;94030.94;5044566;28;20053;-46
2022/03/11 01:20:47;;;;;;;23.50;8.07;;;;;;;-0.92;54.77;94033.00;5029646;28;20053;-49
2022/03/11 01:23:14;;;;;;;19.48;7.60;;;;;;;-0.94;55.05;94026.38;5031812;28;20113;-48
2022/03/11 01:25:42;;;;;;;18.02;8.27;;;;;;;-1.09;55.43;94023.25;5031754;28;20482;-55
2022/03/11 01:28:09;;;;;;;18.23;7.65;;;;;;;-1.06;55.75;94021.81;5028931;28;20045;-51
2022/03/11 01:30:36;;;;;;;23.45;10.10;;;;;;;-1.04;55.74;94031.09;5029469;28;20055;-53
2022/03/11 01:33:03;;;;;;;21.73;9.37;;;;;;;-1.19;56.37;94026.41;5029097;28;20075;-48
2022/03/11 01:35:30;;;;;;;21.08;7.85;;;;;;;-1.08;56.03;94024.06;5029377;28;20060;-48
2022/03/11 01:37:56;;;;;;;16.88;6.85;;;;;;;-0.99;56.04;94026.63;5029425;28;20064;-54
2022/03/11 01:40:24;;;;;;;17.23;7.53;;;;;;;-1.02;55.70;94030.78;5029098;28;20044;-50
2022/03/11 01:42:51;;;;;;;17.00;7.97;;;;;;;-1.05;56.22;94031.44;5029507;28;20041;-49
2022/03/11 01:45:18;;;;;;;17.37;7.53;;;;;;;-1.04;55.79;94023.03;5028910;28;20049;-58
2022/03/11 01:47:44;;;;;;;17.83;7.55;;;;;;;-1.14;56.13;94026.19;5029343;28;20052;-47
2022/03/11 01:50:11;;;;;;;17.13;7.13;;;;;;;-1.16;56.33;94023.03;5026932;28;20064;-48
2022/03/11 01:52:38;;;;;;;14.85;6.82;;;;;;;-1.12;55.86;94021.25;5029276;28;20056;-51
2022/03/11 01:55:05;;;;;;;18.65;7.75;;;;;;;-1.14;56.21;94017.34;5028495;28;20041;-48
2022/03/11 01:57:35;;;;;;;18.10;7.47;;;;;;;-1.16;56.30;94012.28;5029272;28;20049;-49
2022/03/11 02:00:08;;;;;;;18.83;7.63;;;;;;;-1.18;56.39;94011.81;5028211;28;20064;-54
2022/03/11 02:02:34;;;;;;;17.50;7.68;;;;;;;-1.29;57.18;94013.41;5029166;28;20046;-49
2022/03/11 02:05:01;;;;;;;18.38;8.50;;;;;;;-1.35;57.13;94006.69;5028623;28;20046;-55
2022/03/11 02:07:29;;;;;;;18.48;7.82;;;;;;;-1.50;57.84;94014.31;5037681;28;20098;-52
2022/03/11 02:09:56;;;;;;;59.57;16.53;;;;;;;-1.43;57.52;94002.97;5047762;28;20047;-49
2022/03/11 02:12:32;;;;;;;38.60;12.18;;;;;;;-1.41;57.08;94012.31;5047099;28;20063;-58
2022/03/11 02:15:02;;;;;;;22.80;8.63;;;;;;;-1.45;56.86;94010.59;5047847;28;20037;-47
2022/03/11 02:17:28;;;;;;;17.83;8.10;;;;;;;-1.41;57.00;94011.50;5047961;28;20041;-48
2022/03/11 02:19:56;;;;;;;19.90;8.82;;;;;;;-1.55;58.40;94011.84;5048954;28;20049;-48
2022/03/11 02:22:24;;;;;;;37.67;14.53;;;;;;;-1.52;58.00;94016.56;5048247;28;20059;-47
2022/03/11 02:24:54;;;;;;;24.42;10.40;;;;;;;-1.87;58.73;94011.59;5033054;28;20045;-50
2022/03/11 02:27:22;;;;;;;19.27;8.35;;;;;;;-1.86;59.40;94012.38;5043192;28;20374;-47
2022/03/11 02:29:49;;;;;;;20.17;8.45;;;;;;;-1.76;58.57;94011.16;5048221;28;20053;-48
2022/03/11 02:32:16;;;;;;;18.63;8.90;;;;;;;-1.65;58.54;94015.78;5046235;28;20067;-49
2022/03/11 02:34:43;;;;;;;19.73;6.80;;;;;;;-1.70;58.21;94021.34;5063568;28;20037;-52
2022/03/11 02:37:09;;;;;;;16.85;7.00;;;;;;;-1.66;58.52;94010.72;5047544;28;20045;-53
2022/03/11 02:39:36;;;;;;;17.92;7.53;;;;;;;-1.67;59.18;94015.31;5047982;28;20033;-56
2022/03/11 02:42:04;;;;;;;17.42;7.32;;;;;;;-1.76;58.74;94003.88;5047478;28;20409;-48
2022/03/11 02:44:31;;;;;;;18.15;8.05;;;;;;;-1.76;58.94;94011.94;5050396;28;20052;-49
2022/03/11 02:46:59;;;;;;;18.63;8.17;;;;;;;-1.76;58.96;94003.88;5050577;28;20044;-49
2022/03/11 02:49:27;;;;;;;15.48;6.43;;;;;;;-1.84;59.51;94005.53;5050579;28;21495;-51
2022/03/11 02:51:56;;;;;;;17.05;7.95;;;;;;;-1.99;60.10;94003.50;5051617;28;20404;-49
2022/03/11 02:54:24;;;;;;;19.02;7.70;;;;;;;-1.89;59.26;94005.78;5051202;28;20115;-49
2022/03/11 02:56:51;;;;;;;15.57;7.38;;;;;;;-1.88;59.04;94003.84;5051905;28;20047;-51
2022/03/11 02:59:18;;;;;;;16.30;7.20;;;;;;;-2.05;60.10;93999.47;5050723;28;20079;-57
2022/03/11 03:01:45;;;;;;;18.08;7.28;;;;;;;-2.02;60.30;94006.84;5051756;28;20134;-50
2022/03/11 03:04:13;;;;;;;15.55;7.22;;;;;;;-1.98;60.32;94004.28;5051129;28;20052;-50
2022/03/11 03:06:40;;;;;;;18.27;7.68;;;;;;;-1.99;60.29;94002.72;5051325;28;20041;-54
2022/03/11 03:09:07;;;;;;;15.02;7.20;;;;;;;-1.97;60.29;93995.91;5049640;28;20049;-47
2022/03/11 03:11:33;;;;;;;15.40;7.27;;;;;;;-2.04;60.33;93992.97;5049946;28;20051;-47
2022/03/11 03:14:00;;;;;;;15.77;6.68;;;;;;;-1.98;60.06;93991.63;5050852;28;20049;-55
2022/03/11 03:16:27;;;;;;;16.80;6.78;;;;;;;-2.02;59.92;93986.13;5051147;28;20037;-51
2022/03/11 03:18:54;;;;;;;15.18;7.00;;;;;;;-1.99;60.30;93982.00;5066715;28;20055;-52
2022/03/11 03:21:22;;;;;;;14.77;6.97;;;;;;;-1.99;59.91;93981.19;5050579;28;20051;-51
2022/03/11 03:23:49;;;;;;;14.43;6.67;;;;;;;-2.00;60.01;93985.78;5044577;28;20486;-50
2022/03/11 03:26:15;;;;;;;14.23;6.50;;;;;;;-1.98;59.99;93980.88;5042004;28;20484;-47
2022/03/11 03:28:42;;;;;;;14.15;6.65;;;;;;;-1.99;60.27;93992.75;5030854;28;20042;-52
2022/03/11 03:31:09;;;;;;;17.40;7.63;;;;;;;-2.10;60.22;93983.53;5030543;28;20051;-50
2022/03/11 03:33:36;;;;;;;16.33;7.18;;;;;;;-2.17;60.96;93981.41;5030797;28;20037;-54
2022/03/11 03:36:05;;;;;;;16.70;7.90;;;;;;;-2.45;61.98;93984.69;5030688;28;20053;-49
2022/03/11 03:38:32;;;;;;;15.45;7.22;;;;;;;-2.35;61.59;93977.34;5030670;28;20048;-56
2022/03/11 03:40:58;;;;;;;16.30;7.00;;;;;;;-2.27;61.54;93976.47;5030993;28;20048;-47
2022/03/11 03:43:25;;;;;;;16.00;6.80;;;;;;;-2.18;61.41;93976.34;5028448;28;20045;-47
2022/03/11 03:45:52;;;;;;;14.93;7.15;;;;;;;-2.24;61.36;93973.88;5046094;28;20041;-55
2022/03/11 03:48:19;;;;;;;14.83;6.83;;;;;;;-2.22;61.38;93982.38;5030087;28;20050;-61
2022/03/11 03:50:46;;;;;;;19.50;8.82;;;;;;;-2.23;61.64;93983.53;5029574;28;20042;-49
2022/03/11 03:53:14;;;;;;;35.47;17.02;;;;;;;-2.28;62.09;93980.25;5028897;28;20049;-48
2022/03/11 03:55:40;;;;;;;20.17;9.00;;;;;;;-2.36;62.10;93981.13;5027869;28;20037;-54
2022/03/11 03:58:07;;;;;;;20.25;9.05;;;;;;;-2.35;62.09;93971.97;5030144;28;20498;-47
2022/03/11 04:00:34;;;;;;;17.80;7.43;;;;;;;-2.36;62.67;93970.38;5030033;28;20041;-48
2022/03/11 04:03:01;;;;;;;18.33;7.90;;;;;;;-2.35;62.71;93969.28;5028557;28;20041;-49
2022/03/11 04:05:28;;;;;;;17.33;7.75;;;;;;;-2.35;62.83;93970.06;5045390;28;20040;-55
2022/03/11 04:07:55;;;;;;;15.90;7.50;;;;;;;-2.38;62.75;93965.31;5042660;28;20053;-49
2022/03/11 04:10:23;;;;;;;16.77;7.60;;;;;;;-2.42;62.67;93969.78;5049691;28;20041;-55
2022/03/11 04:12:50;;;;;;;16.53;7.20;;;;;;;-2.45;62.96;93965.09;5050488;28;20052;-50
2022/03/11 04:15:16;;;;;;;17.63;7.20;;;;;;;-2.46;63.10;93971.56;5049500;28;20067;-46
2022/03/11 04:17:43;;;;;;;17.48;7.88;;;;;;;-2.53;63.09;93968.66;5049917;28;20053;-48
2022/03/11 04:20:11;;;;;;;27.88;9.77;;;;;;;-2.61;63.49;93970.31;5049672;28;20432;-53
2022/03/11 04:22:45;;;;;;;27.00;10.68;;;;;;;-2.63;62.85;93976.00;5058502;28;20394;-49
2022/03/11 04:25:13;;;;;;;28.23;10.37;;;;;;;-2.67;63.19;93977.00;5049757;28;20055;-46
2022/03/11 04:27:41;;;;;;;25.58;10.38;;;;;;;-2.69;63.35;93977.31;5049670;28;20828;-47
2022/03/11 04:30:08;;;;;;;32.17;11.25;;;;;;;-2.67;63.62;93979.69;5049366;28;20037;-46
2022/03/11 04:32:35;;;;;;;30.67;11.80;;;;;;;-2.61;63.28;93978.38;5049580;28;20092;-48
2022/03/11 04:35:03;;;;;;;32.15;12.70;;;;;;;-2.63;63.51;93986.75;5049246;28;20068;-52
2022/03/11 04:37:30;;;;;;;31.27;11.17;;;;;;;-2.65;63.34;93985.53;5049553;28;20106;-49
2022/03/11 04:39:57;;;;;;;22.92;9.35;;;;;;;-2.68;64.01;93980.78;5049613;28;20055;-49
2022/03/11 04:42:25;;;;;;;24.98;10.15;;;;;;;-2.70;63.86;93986.50;5047409;28;20049;-53
2022/03/11 04:44:52;;;;;;;21.23;9.85;;;;;;;-2.68;63.90;93983.47;5049662;28;20071;-50
2022/03/11 04:47:19;;;;;;;24.27;10.25;;;;;;;-2.66;63.76;93981.25;5049238;28;20049;-49
2022/03/11 04:49:45;;;;;;;26.07;9.50;;;;;;;-2.68;64.03;93986.16;5049293;28;20044;-48
2022/03/11 04:52:12;;;;;;;24.27;9.80;;;;;;;-2.68;64.36;93994.22;5048888;28;20098;-50
2022/03/11 04:54:39;;;;;;;24.30;10.40;;;;;;;-2.74;64.18;93995.53;5039677;28;20045;-47
2022/03/11 04:57:06;;;;;;;22.77;10.05;;;;;;;-2.73;64.55;93989.06;5029486;28;20049;-53
2022/03/11 04:59:32;;;;;;;22.70;10.73;;;;;;;-2.79;64.25;93976.97;5029699;28;20042;-46
2022/03/11 05:01:59;;;;;;;23.87;11.30;;;;;;;-2.84;64.79;93981.41;5029890;28;20037;-47
2022/03/11 05:04:26;;;;;;;25.58;11.18;;;;;;;-2.79;65.16;93979.66;5028991;28;20448;-53
2022/03/11 05:06:53;;;;;;;26.45;12.05;;;;;;;-2.81;65.29;93975.38;5031881;28;20033;-55
2022/03/11 05:09:19;;;;;;;24.70;11.85;;;;;;;-2.88;65.32;93968.97;5049193;28;20051;-52
2022/03/11 05:11:46;;;;;;;24.25;10.70;;;;;;;-2.92;65.46;93971.50;5059740;28;20044;-54
2022/03/11 05:14:13;;;;;;;23.60;10.47;;;;;;;-2.89;65.23;93975.47;5048071;28;20048;-50
2022/03/11 05:16:40;;;;;;;28.52;13.20;;;;;;;-2.93;65.50;93967.25;5049476;28;20041;-52
2022/03/11 05:19:07;;;;;;;21.42;10.43;;;;;;;-2.97;65.93;93969.03;5049080;28;20054;-56
2022/03/11 05:21:33;;;;;;;23.45;9.63;;;;;;;-2.94;66.02;93973.72;5048319;28;20037;-51
2022/03/11 05:24:00;;;;;;;22.50;10.13;;;;;;;-3.02;67.13;93974.59;5049002;28;20056;-47
2022/03/11 05:26:29;;;;;;;18.83;8.83;;;;;;;-2.95;66.18;93974.09;5049698;28;20045;-50
2022/03/11 05:28:59;;;;;;;20.02;9.32;;;;;;;-2.94;66.45;93976.41;5049578;28;20045;-48
2022/03/11 05:31:27;;;;;;;22.75;9.50;;;;;;;-2.89;66.21;93978.16;5048303;28;20605;-50
2022/03/11 05:33:55;;;;;;;20.63;9.20;;;;;;;-2.91;66.52;93977.69;5047618;28;20078;-46
2022/03/11 05:36:22;;;;;;;23.23;9.68;;;;;;;-2.95;66.76;93977.56;5048859;28;20075;-47
2022/03/11 05:38:50;;;;;;;20.57;9.07;;;;;;;-2.88;66.41;93980.50;5059469;28;20049;-48
2022/03/11 05:41:17;;;;;;;21.52;9.55;;;;;;;-2.85;66.05;93979.06;5047461;28;20049;-47
2022/03/11 05:43:44;;;;;;;22.25;9.60;;;;;;;-2.92;65.71;93984.16;5049000;28;20036;-50
2022/03/11 05:46:11;;;;;;;23.75;9.63;;;;;;;-2.92;65.86;93984.94;5048441;28;20045;-56
2022/03/11 05:48:37;;;;;;;21.30;9.88;;;;;;;-2.93;66.20;93987.97;5047887;28;20045;-50
2022/03/11 05:51:06;;;;;;;29.70;11.00;;;;;;;-3.03;66.55;93989.16;5048589;28;20739;-50
2022/03/11 05:53:33;;;;;;;27.58;11.32;;;;;;;-2.99;65.92;93995.44;5047915;28;20036;-53
2022/03/11 05:56:00;;;;;;;23.40;10.75;;;;;;;-2.92;65.77;93998.34;5040133;28;20053;-46
2022/03/11 05:58:27;;;;;;;23.25;10.05;;;;;;;-2.88;65.52;94003.88;5036461;28;20037;-50
2022/03/11 06:00:54;;;;;;;23.08;11.25;;;;;;;-2.85;65.80;94001.31;5047960;28;20086;-50
2022/03/11 06:03:21;;;;;;;29.93;12.03;;;;;;;-2.84;65.68;93997.53;5047701;28;20049;-56
2022/03/11 06:05:48;;;;;;;27.63;12.13;;;;;;;-2.82;65.79;93999.88;5046429;28;20447;-50
2022/03/11 06:08:15;;;;;;;29.52;12.30;;;;;;;-2.82;66.15;94005.25;5047610;28;20033;-50
2022/03/11 06:10:43;;;;;;;24.70;11.38;;;;;;;-2.76;65.83;93998.56;5048045;28;20057;-51
2022/03/11 06:13:09;;;;;;;24.75;11.00;;;;;;;-2.75;66.32;94002.03;5061040;28;20048;-47
2022/03/11 06:15:36;;;;;;;26.90;11.43;;;;;;;-2.58;65.44;94003.78;5047832;28;20059;-47
2022/03/11 06:18:03;;;;;;;40.22;13.20;;;;;;;-2.63;65.68;94004.78;5047933;28;20405;-54
2022/03/11 06:20:32;;;;;;;30.48;12.60;;;;;;;-2.58;65.66;94004.56;5050733;28;20049;-51
2022/03/11 06:22:59;;;;;;;39.72;12.30;;;;;;;-2.46;65.34;93995.75;5052181;28;20041;-51
2022/03/11 06:25:26;;;;;;;60.67;15.07;;;;;;;-2.38;64.92;94002.19;5051204;28;20708;-49
2022/03/11 06:27:53;;;;;;;66.07;15.97;;;;;;;-2.43;65.20;94003.94;5050868;28;20051;-52
2022/03/11 06:30:20;;;;;;;46.40;13.90;;;;;;;-2.52;65.41;94013.97;5051363;28;20090;-50
2022/03/11 06:32:49;;;;;;;38.55;12.95;;;;;;;-2.44;65.22;94013.13;5051385;28;20048;-49
2022/03/11 06:35:17;;;;;;;28.50;12.23;;;;;;;-2.51;65.80;94006.72;5051576;28;20122;-48
2022/03/11 06:37:47;;;;;;;26.17;11.90;;;;;;;-2.43;65.73;94001.28;5051513;28;20040;-51
2022/03/11 06:40:14;;;;;;;26.23;11.97;;;;;;;-2.28;65.41;94002.53;5051507;28;20481;-50
2022/03/11 06:42:43;;;;;;;32.17;12.68;;;;;;;-2.14;64.67;94006.84;5051424;28;20052;-47
2022/03/11 06:45:11;;;;;;;39.30;13.77;;;;;;;-2.08;64.63;94000.13;5051221;28;20421;-49
2022/03/11 06:47:38;;;;;;;29.55;13.23;;;;;;;-1.96;64.30;94015.50;5051240;28;20044;-46
2022/03/11 06:50:06;;;;;;;35.92;13.32;;;;;;;-1.86;64.02;94010.47;5051061;28;20055;-50
2022/03/11 06:52:33;;;;;;;43.00;14.30;;;;;;;-1.79;64.09;94009.13;5051361;28;20045;-47
2022/03/11 06:55:00;;;;;;;37.55;14.00;;;;;;;-1.66;63.68;94019.56;5051669;28;20514;-52
2022/03/11 06:57:28;;;;;;;38.45;16.10;;;;;;;-1.76;64.04;94020.00;5050572;28;20404;-51
2022/03/11 06:59:54;;;;;;;70.68;22.75;;;;;;;-1.48;63.69;94022.84;5051007;28;20056;-51
2022/03/11 07:02:21;;;;;;;74.18;22.95;;;;;;;-1.29;63.12;94016.91;5051020;28;20041;-50
2022/03/11 07:04:53;;;;;;;213.93;46.90;;;;;;;-0.97;62.46;94016.28;5051243;28;20045;-51
2022/03/11 07:07:20;;;;;;;62.22;19.65;;;;;;;-0.86;62.14;94017.38;5050904;28;20040;-49
2022/03/11 07:09:46;;;;;;;36.05;15.02;;;;;;;-0.84;62.19;94015.91;5050913;28;20044;-48
2022/03/11 07:12:13;;;;;;;28.85;13.50;;;;;;;-0.78;62.01;94011.09;5038711;28;20057;-47
2022/03/11 07:14:41;;;;;;;26.05;12.68;;;;;;;-0.58;61.55;94016.63;5043855;28;20052;-52
2022/03/11 07:17:09;;;;;;;33.33;14.10;;;;;;;-0.39;61.11;94018.69;5041272;28;20045;-52
2022/03/11 07:19:36;;;;;;;39.42;15.85;;;;;;;-0.26;61.39;94018.31;5043664;28;20049;-52
2022/03/11 07:22:04;;;;;;;35.13;14.70;;;;;;;-0.05;60.84;94015.38;5051215;28;20485;-48
2022/03/11 07:24:32;;;;;;;29.90;13.50;;;;;;;-0.06;60.49;94023.81;5051672;28;20041;-49
2022/03/11 07:26:59;;;;;;;42.72;15.25;;;;;;;0.26;60.33;94018.47;5051662;28;20059;-46
2022/03/11 07:29:26;;;;;;;29.93;13.70;;;;;;;0.21;60.68;94026.84;5050296;28;20087;-49
2022/03/11 07:31:53;;;;;;;34.47;14.02;;;;;;;0.38;60.91;94016.50;5051483;28;20044;-48
2022/03/11 07:34:23;;;;;;;33.65;14.30;;;;;;;1.22;58.15;94011.81;5050847;28;22648;-46
2022/03/11 07:36:50;;;;;;;32.10;14.52;;;;;;;5.07;48.19;94016.19;5050274;28;20390;-47
2022/03/11 07:39:17;;;;;;;31.70;15.07;;;;;;;7.12;42.19;94005.94;5050758;28;20055;-48
2022/03/11 07:41:44;;;;;;;28.27;14.77;;;;;;;9.31;38.93;93999.44;5060882;28;20037;-55
2022/03/11 07:44:12;;;;;;;27.80;14.93;;;;;;;10.85;34.67;93989.41;5050841;28;20053;-47
2022/03/11 07:46:45;;;;;;;26.27;15.25;;;;;;;9.59;35.94;93996.44;5051528;28;20498;-55
2022/03/11 07:49:12;;;;;;;28.70;15.55;;;;;;;10.98;34.42;93989.59;5047569;28;20075;-48
2022/03/11 07:51:39;;;;;;;27.85;16.00;;;;;;;12.22;32.38;93987.03;5031012;28;20046;-49
2022/03/11 07:54:06;;;;;;;25.80;16.00;;;;;;;12.43;31.87;93985.81;5029883;28;20037;-52
2022/03/11 07:56:33;;;;;;;24.45;15.73;;;;;;;12.49;31.26;93984.09;5030941;28;20041;-48
2022/03/11 07:58:59;;;;;;;27.20;17.10;;;;;;;11.93;32.11;93985.63;5030920;28;20040;-53
2022/03/11 08:01:26;;;;;;;30.55;17.77;;;;;;;12.03;31.73;93981.09;5030306;28;20397;-55
2022/03/11 08:03:53;;;;;;;24.55;16.42;;;;;;;11.87;32.48;93981.00;5031252;28;20045;-49
2022/03/11 08:06:20;;;;;;;25.50;17.07;;;;;;;12.25;31.63;93984.19;5030606;28;20511;-50
2022/03/11 08:08:47;;;;;;;25.20;17.00;;;;;;;13.96;29.29;93975.84;5050288;28;20045;-51
2022/03/11 08:11:14;;;;;;;23.63;16.70;;;;;;;14.86;27.99;93970.50;5044278;28;20041;-50
2022/03/11 08:13:42;;;;;;;25.10;17.45;;;;;;;14.82;27.68;93969.84;5030554;28;20033;-55
2022/03/11 08:16:12;;;;;;;26.13;17.40;;;;;;;13.28;29.56;93982.28;5032546;28;20064;-53
2022/03/11 08:18:39;;;;;;;24.80;16.70;;;;;;;13.99;28.55;93971.44;5050836;28;20033;-54
2022/03/11 08:21:06;;;;;;;25.77;16.50;;;;;;;13.91;28.59;93965.31;5050418;28;20037;-51
2022/03/11 08:23:33;;;;;;;24.45;16.40;;;;;;;12.67;29.32;93962.44;5050657;28;20041;-47
2022/03/11 08:25:59;;;;;;;26.23;17.00;;;;;;;12.82;28.94;93960.16;5050653;28;20047;-49
2022/03/11 08:28:26;;;;;;;25.83;16.48;;;;;;;12.58;30.21;93952.03;5042404;28;20375;-47
2022/03/11 08:30:54;;;;;;;23.23;16.00;;;;;;;15.77;25.70;93947.81;5030566;28;20030;-48
2022/03/11 08:33:22;;;;;;;24.20;16.13;;;;;;;17.06;24.21;93950.56;5028662;28;20057;-47
2022/03/11 08:36:09;;;;;;;21.98;16.40;;;;;;;16.47;23.92;93952.44;5029885;28;20045;-50
2022/03/11 08:38:39;;;;;;;23.13;15.82;;;;;;;14.02;26.86;93953.22;5030551;28;20042;-47
2022/03/11 08:41:08;;;;;;;22.98;16.13;;;;;;;14.70;26.41;93956.78;5029454;28;20046;-56
2022/03/11 08:43:38;;;;;;;22.43;15.83;;;;;;;15.29;25.54;93951.78;5030242;28;20049;-55
2022/03/11 08:46:07;;;;;;;24.08;16.42;;;;;;;15.83;24.83;93953.53;5030033;28;20103;-49
2022/03/11 08:48:35;;;;;;;21.83;15.65;;;;;;;16.75;23.96;93951.34;5030335;28;20051;-47
2022/03/11 08:51:02;;;;;;;22.83;16.48;;;;;;;16.44;24.30;93945.03;5029459;28;20045;-57
2022/03/11 08:53:29;;;;;;;24.27;16.52;;;;;;;17.01;23.39;93939.34;5030212;28;20045;-47
2022/03/11 08:55:55;;;;;;;21.07;15.90;;;;;;;17.02;23.56;93952.72;5030214;28;20067;-49
2022/03/11 08:58:22;;;;;;;21.95;15.68;;;;;;;18.08;22.19;93953.56;5029482;28;20041;-49
2022/03/11 09:00:49;;;;;;;23.80;15.90;;;;;;;18.79;21.47;93952.38;5030161;28;20496;-49
2022/03/11 09:03:16;;;;;;;21.70;15.57;;;;;;;18.06;21.93;93950.47;5029676;28;20482;-52
2022/03/11 09:05:43;;;;;;;24.30;15.93;;;;;;;18.44;21.62;93961.06;5030009;28;20052;-56
2022/03/11 09:08:09;;;;;;;20.80;15.30;;;;;;;18.71;21.71;93959.47;5042489;28;20040;-54
2022/03/11 09:10:36;;;;;;;21.42;15.40;;;;;;;19.84;20.55;93948.94;5050002;28;20059;-52
2022/03/11 09:13:03;;;;;;;20.92;15.18;;;;;;;20.46;19.59;93947.31;5049528;28;20041;-56
2022/03/11 09:15:30;;;;;;;21.38;15.10;;;;;;;20.42;19.45;93940.41;5049578;28;20404;-47
2022/03/11 09:17:58;;;;;;;19.48;14.57;;;;;;;19.37;20.36;93944.88;5049624;28;20051;-48
2022/03/11 09:20:26;;;;;;;20.63;14.77;;;;;;;20.12;19.53;93943.13;5047742;28;20070;-54
2022/03/11 09:22:58;;;;;;;20.40;14.75;;;;;;;21.25;18.89;93939.50;5049834;28;20393;-56
2022/03/11 09:25:25;;;;;;;20.17;14.38;;;;;;;18.91;20.49;93937.53;5049127;28;20063;-49
2022/03/11 09:27:52;;;;;;;19.60;14.80;;;;;;;20.24;19.92;93936.56;5048134;28;20055;-48
2022/03/11 09:30:19;;;;;;;20.27;14.60;;;;;;;21.01;18.83;93934.06;5048734;28;20037;-54
2022/03/11 09:32:46;;;;;;;20.90;15.10;;;;;;;20.55;19.23;93930.50;5049544;28;20043;-51
2022/03/11 09:35:13;;;;;;;21.10;14.68;;;;;;;20.73;19.07;93928.81;5049063;28;20040;-54
2022/03/11 09:37:39;;;;;;;22.17;15.10;;;;;;;21.19;18.40;93922.69;5049542;28;20049;-49
2022/03/11 09:40:08;;;;;;;20.80;14.98;;;;;;;19.87;20.05;93920.13;5048808;28;20033;-47
2022/03/11 09:42:34;;;;;;;19.80;15.48;;;;;;;21.53;18.21;93917.59;5049394;28;20500;-47
2022/03/11 09:45:02;;;;;;;23.90;16.40;;;;;;;22.82;17.23;93918.28;5048790;28;20037;-51
2022/03/11 09:47:31;;;;;;;21.90;15.27;;;;;;;22.33;17.67;93929.25;5049127;28;20053;-50
2022/03/11 09:49:58;;;;;;;21.20;15.90;;;;;;;21.98;17.62;93929.34;5049272;28;20049;-49
2022/03/11 09:52:25;;;;;;;20.38;15.35;;;;;;;21.74;17.46;93921.16;5048900;28;20135;-53
2022/03/11 09:54:51;;;;;;;24.25;14.93;;;;;;;22.13;17.63;93915.28;5049287;28;20155;-47
2022/03/11 09:57:23;;;;;;;19.30;15.20;;;;;;;20.37;19.07;93918.78;5048841;28;20049;-54
2022/03/11 09:59:50;;;;;;;19.92;15.10;;;;;;;20.20;19.80;93919.22;5045530;28;20103;-48
2022/03/11 10:02:23;;;;;;;21.80;15.60;;;;;;;19.99;19.92;93909.97;5039324;28;20397;-49
2022/03/11 10:04:52;;;;;;;24.88;16.95;;;;;;;20.93;18.98;93917.72;5038824;28;20456;-50
2022/03/11 10:07:39;;;;;;;20.63;15.15;;;;;;;22.59;17.69;93920.09;5038436;28;20114;-53
2022/03/11 10:10:13;;;;;;;22.00;15.17;;;;;;;23.04;17.13;93916.94;5048835;28;20056;-51
2022/03/11 10:13:00;;;;;;;28.42;17.63;;;;;;;22.92;16.52;93911.22;5048553;28;20048;-46
2022/03/11 10:15:29;;;;;;;26.00;16.80;;;;;;;21.37;17.98;93912.50;5049039;28;20041;-54
2022/03/11 10:17:56;;;;;;;18.27;14.20;;;;;;;23.39;17.29;93913.88;5049016;28;20057;-52
2022/03/11 10:20:23;;;;;;;19.13;14.27;;;;;;;25.58;14.97;93910.06;5048752;28;20048;-53
2022/03/11 10:22:50;;;;;;;21.77;15.20;;;;;;;25.30;15.08;93904.47;5048949;28;20052;-54
2022/03/11 10:25:19;;;;;;;19.23;14.38;;;;;;;23.60;16.14;93906.09;5048230;28;20053;-55
2022/03/11 10:27:56;;;;;;;19.90;15.18;;;;;;;23.64;16.58;93898.25;5049058;28;20044;-52
2022/03/11 10:30:24;;;;;;;20.13;14.95;;;;;;;24.92;15.37;93901.16;5047051;28;20047;-51
2022/03/11 10:32:55;;;;;;;18.67;14.63;;;;;;;25.66;14.96;93896.25;5048807;28;20064;-51
2022/03/11 10:35:37;;;;;;;19.70;14.70;;;;;;;26.65;13.93;93892.75;5047080;28;20496;-54
2022/03/11 10:38:07;;;;;;;26.70;15.48;;;;;;;27.30;13.46;93896.09;5047021;28;20044;-48
2022/03/11 10:40:39;;;;;;;20.23;14.60;;;;;;;26.27;13.89;93892.41;5047496;28;20051;-52
2022/03/11 10:43:20;;;;;;;21.38;15.55;;;;;;;26.18;14.14;93889.94;5047005;28;20033;-59
2022/03/11 10:46:04;;;;;;;25.73;19.17;;;;;;;25.48;14.56;93889.13;5048560;28;20047;-53
2022/03/11 10:48:53;;;;;;;35.60;23.43;;;;;;;25.09;14.89;93889.91;5047765;28;20713;-50
2022/03/11 10:51:22;;;;;;;20.35;15.52;;;;;;;26.77;13.67;93887.03;5048155;28;20105;-53
2022/03/11 10:53:49;;;;;;;20.52;15.15;;;;;;;27.41;13.01;93893.19;5048698;28;20088;-54
2022/03/11 10:56:35;;;;;;;22.50;15.80;;;;;;;25.41;14.73;93884.03;5047882;28;20048;-49
2022/03/11 10:59:28;;;;;;;23.63;16.40;;;;;;;24.72;15.26;93885.31;5047694;28;20090;-55
2022/03/11 11:01:58;;;;;;;21.73;15.87;;;;;;;23.65;15.60;93877.34;5036533;28;20045;-49
2022/03/11 11:04:26;;;;;;;21.73;16.20;;;;;;;24.31;16.04;93878.09;5028997;28;20096;-50
2022/03/11 11:06:57;;;;;;;20.67;15.20;;;;;;;24.97;15.09;93871.53;5034512;28;20041;-50
2022/03/11 11:09:24;;;;;;;20.83;15.02;;;;;;;26.21;14.42;93857.19;5051917;28;20047;-50
2022/03/11 11:11:51;;;;;;;19.33;15.05;;;;;;;25.35;14.78;93858.75;5051794;28;20037;-55
2022/03/11 11:14:18;;;;;;;20.17;14.87;;;;;;;27.61;12.69;93860.94;5051299;28;20071;-52
2022/03/11 11:16:48;;;;;;;20.05;14.70;;;;;;;24.24;14.99;93861.00;5051955;28;20049;-48
2022/03/11 11:19:18;;;;;;;22.08;14.77;;;;;;;24.92;14.21;93856.25;5051691;28;20109;-51
2022/03/11 11:21:46;;;;;;;20.23;15.07;;;;;;;25.64;14.02;93856.66;5051904;28;20052;-53
2022/03/11 11:24:18;;;;;;;21.27;14.50;;;;;;;27.44;12.73;93852.66;5051180;28;20440;-52
2022/03/11 11:26:51;;;;;;;20.93;14.70;;;;;;;26.04;13.02;93840.41;5051905;28;20122;-53